Time;durP1;ratioP1;P1;durP2;ratioP2;P2;SDS_P1;SDS_P2;PMS_P1;PMS_P2;Temp;Humidity;BMP_temperature;BMP_pressure;BME280_temperature;BME280_humidity;BME280_pressure;Samples;Min_cycle;Max_cycle;Signal;HPM_P1;HPM_P2
2024/03/16 00:02:59;;;;;;;34.00;19.00;;;;;;;7.01;81.48;99421.39;217433;1263;140180;-77
2024/03/16 00:08:05;;;;;;;;;;;;;;;7.00;81.23;99421.05;217195;1265;140720;-77
2024/03/16 00:13:12;;;;;;;36.00;19.30;;;;;;;6.94;81.46;99419.72;217888;1261;127117;-77
2024/03/16 00:18:17;;;;;;;34.90;22.10;;;;;;;6.91;81.48;99413.88;217519;1260;140625;-76
2024/03/16 00:23:22;;;;;;;36.50;21.90;;;;;;;6.89;81.53;99412.02;217044;1261;139415;-77
2024/03/16 00:28:28;;;;;;;36.20;20.70;;;;;;;6.88;81.71;99412.76;217379;1261;139916;-76
2024/03/16 00:33:32;;;;;;;34.40;20.50;;;;;;;6.86;81.59;99412.42;217146;1264;140272;-75
2024/03/16 00:38:36;;;;;;;36.20;22.00;;;;;;;6.85;81.72;99413.89;218119;1261;141289;-73
2024/03/16 00:43:42;;;;;;;37.30;20.00;;;;;;;6.83;82.29;99412.52;217215;1260;139632;-76
2024/03/16 00:48:46;;;;;;;38.50;20.70;;;;;;;6.83;82.40;99412.77;217234;1264;139452;-75
2024/03/16 00:53:50;;;;;;;35.50;22.20;;;;;;;6.80;82.15;99412.25;217628;1263;140446;-76
2024/03/16 00:58:55;;;;;;;31.40;19.30;;;;;;;6.78;82.15;99409.80;217744;1264;140905;-75
2024/03/16 01:04:04;;;;;;;28.00;19.60;;;;;;;6.77;82.63;99404.83;217452;1259;141272;-74
2024/03/16 01:09:09;;;;;;;26.20;17.80;;;;;;;6.78;82.65;99402.90;217237;1264;140823;-76
2024/03/16 01:14:16;;;;;;;35.20;20.30;;;;;;;6.81;83.02;99395.91;217219;1263;141097;-77
2024/03/16 01:19:21;;;;;;;35.40;21.20;;;;;;;6.86;83.15;99397.13;217054;1260;141035;-77
2024/03/16 01:24:25;;;;;;;34.10;18.70;;;;;;;6.92;83.50;99399.52;217144;1263;140305;-76
2024/03/16 01:29:30;;;;;;;34.40;21.20;;;;;;;6.97;83.62;99397.05;217183;1260;139861;-76
2024/03/16 01:34:38;;;;;;;34.70;18.30;;;;;;;7.04;83.81;99396.98;216968;1263;139890;-75
2024/03/16 01:39:46;;;;;;;36.80;20.90;;;;;;;7.09;83.50;99387.95;217237;1260;140378;-75
2024/03/16 01:45:07;;;;;;;30.30;17.20;;;;;;;7.13;83.72;99388.08;217037;1260;139889;-76
2024/03/16 01:50:10;;;;;;;37.80;20.50;;;;;;;7.17;83.95;99386.61;217156;1260;140272;-76
2024/03/16 01:55:16;;;;;;;33.80;19.50;;;;;;;7.22;84.16;99381.86;217434;1260;222591;-75
2024/03/16 02:00:20;;;;;;;24.90;15.20;;;;;;;7.27;84.24;99382.23;217621;1263;141153;-76
2024/03/16 02:05:24;;;;;;;32.60;17.10;;;;;;;7.33;84.38;99378.10;217121;1263;140345;-75
2024/03/16 02:10:31;;;;;;;30.40;17.20;;;;;;;7.39;84.48;99375.17;217000;1263;140008;-75
2024/03/16 02:15:35;;;;;;;30.30;18.50;;;;;;;7.42;84.35;99373.74;217186;1260;141483;-75
2024/03/16 02:20:40;;;;;;;35.10;16.90;;;;;;;7.47;84.04;99376.21;219506;1260;140418;-75
2024/03/16 02:25:44;;;;;;;28.00;16.20;;;;;;;7.53;84.25;99374.57;216949;1263;141564;-75
2024/03/16 02:30:49;;;;;;;32.80;19.80;;;;;;;7.57;84.12;99371.98;217717;1260;141181;-75
2024/03/16 02:35:55;;;;;;;29.20;16.30;;;;;;;7.61;84.57;99376.13;217253;1260;140135;-75
2024/03/16 02:40:59;;;;;;;28.90;16.90;;;;;;;7.66;84.60;99380.29;216962;1261;140097;-77
2024/03/16 02:46:05;;;;;;;27.90;15.90;;;;;;;7.71;84.69;99376.27;217110;1260;140550;-76
2024/03/16 02:51:10;;;;;;;25.30;16.90;;;;;;;7.75;84.51;99374.83;216971;1261;140137;-75
2024/03/16 02:56:14;;;;;;;32.10;18.90;;;;;;;7.78;84.96;99373.40;216749;1261;140306;-75
2024/03/16 03:01:20;;;;;;;25.30;15.80;;;;;;;7.82;85.13;99379.69;217072;1259;140152;-75
2024/03/16 03:06:27;;;;;;;32.50;18.10;;;;;;;7.84;84.97;99377.70;217102;1261;139315;-75
2024/03/16 03:11:31;;;;;;;25.20;18.10;;;;;;;7.89;85.30;99379.02;216877;1260;140300;-76
2024/03/16 03:16:36;;;;;;;24.50;15.80;;;;;;;7.92;85.15;99378.08;217014;1261;230374;-76
2024/03/16 03:21:41;;;;;;;26.00;16.50;;;;;;;7.97;85.50;99384.48;217009;1259;140569;-77
2024/03/16 03:26:45;;;;;;;21.20;13.70;;;;;;;8.03;85.76;99384.59;216973;1260;141043;-76
2024/03/16 03:31:51;;;;;;;20.50;15.40;;;;;;;8.08;85.79;99380.73;217708;1259;140109;-78
2024/03/16 03:36:56;;;;;;;22.60;16.50;;;;;;;8.12;85.93;99375.33;217207;1259;140818;-78
2024/03/16 03:42:00;;;;;;;21.70;14.10;;;;;;;8.18;86.11;99370.44;217207;1263;140586;-77
2024/03/16 03:47:04;;;;;;;21.30;14.10;;;;;;;8.23;86.37;99367.38;217135;1263;140406;-77
2024/03/16 03:52:09;;;;;;;18.60;11.90;;;;;;;8.28;86.63;99364.41;217264;1260;140875;-77
2024/03/16 03:57:13;;;;;;;20.60;12.90;;;;;;;8.34;86.88;99364.67;217091;1263;139932;-77
2024/03/16 04:02:18;;;;;;;18.20;12.10;;;;;;;8.37;86.99;99370.34;217528;1259;139846;-76
2024/03/16 04:07:22;;;;;;;19.70;11.80;;;;;;;8.39;87.23;99369.29;217773;1259;140372;-77
2024/03/16 04:12:27;;;;;;;21.60;12.70;;;;;;;8.41;87.10;99372.53;218971;1264;141328;-76
2024/03/16 04:17:31;;;;;;;21.70;14.10;;;;;;;8.42;86.84;99369.13;219159;1259;140467;-76
2024/03/16 04:22:35;;;;;;;26.80;13.60;;;;;;;8.41;86.99;99371.92;217028;1263;141972;-76
2024/03/16 04:27:40;;;;;;;19.60;11.90;;;;;;;8.42;86.91;99372.96;217478;1260;140515;-76
2024/03/16 04:32:45;;;;;;;21.80;13.70;;;;;;;8.43;86.82;99374.05;217917;1259;139857;-77
2024/03/16 04:37:52;;;;;;;22.50;12.50;;;;;;;8.43;86.97;99379.52;217506;1259;139794;-77
2024/03/16 04:42:56;;;;;;;21.30;12.00;;;;;;;8.45;87.11;99384.23;217203;1260;140986;-76
2024/03/16 04:48:00;;;;;;;21.00;13.10;;;;;;;8.43;87.02;99384.99;217307;1263;140213;-76
2024/03/16 04:53:05;;;;;;;17.80;12.00;;;;;;;8.42;87.03;99384.48;217339;1260;142204;-77
2024/03/16 04:58:09;;;;;;;16.70;11.10;;;;;;;8.40;87.15;99384.23;217326;1260;140954;-77
2024/03/16 05:03:14;;;;;;;16.30;12.00;;;;;;;8.39;87.27;99386.91;217258;1259;140367;-77
2024/03/16 05:08:18;;;;;;;14.80;10.40;;;;;;;8.38;87.51;99393.33;217172;1259;139725;-77
2024/03/16 05:13:27;;;;;;;20.20;11.70;;;;;;;8.42;87.97;99403.08;217117;1259;139987;-77
2024/03/16 05:18:35;;;;;;;11.80;7.70;;;;;;;8.47;88.13;99403.09;217675;1260;142022;-77
2024/03/16 05:23:45;;;;;;;10.30;8.20;;;;;;;8.52;88.56;99408.45;217062;1259;140650;-76
2024/03/16 05:28:50;;;;;;;11.60;7.20;;;;;;;8.59;88.84;99407.89;217005;1260;140393;-76
2024/03/16 05:33:54;;;;;;;7.60;6.60;;;;;;;8.67;89.15;99405.05;217143;1260;734488;-76
2024/03/16 05:38:59;;;;;;;10.50;7.90;;;;;;;8.74;89.53;99406.27;217275;1259;139948;-77
2024/03/16 05:44:03;;;;;;;10.20;6.90;;;;;;;8.83;89.65;99407.45;217021;1263;141595;-77
2024/03/16 05:49:08;;;;;;;7.80;5.50;;;;;;;8.91;89.85;99406.70;216986;1263;140933;-76
2024/03/16 05:54:12;;;;;;;9.80;6.40;;;;;;;8.99;90.05;99410.77;217094;1261;139843;-77
2024/03/16 05:59:17;;;;;;;7.70;6.10;;;;;;;9.07;90.22;99412.84;217295;1259;139808;-77
2024/03/16 06:04:22;;;;;;;6.50;4.80;;;;;;;9.17;90.30;99407.99;218986;1259;141615;-77
2024/03/16 06:09:26;;;;;;;10.00;4.80;;;;;;;9.30;90.49;99408.89;216891;1259;140780;-76
2024/03/16 06:14:31;;;;;;;5.80;4.70;;;;;;;9.40;90.66;99414.06;217070;1260;140452;-78
2024/03/16 06:19:36;;;;;;;5.80;4.60;;;;;;;9.47;90.77;99420.02;217229;1259;140019;-78
2024/03/16 06:24:42;;;;;;;7.40;4.40;;;;;;;9.55;90.79;99420.58;217412;1260;139650;-78
2024/03/16 06:29:55;;;;;;;4.50;3.90;;;;;;;9.65;90.92;99423.45;217171;1259;139981;-77
2024/03/16 06:35:00;;;;;;;4.20;3.20;;;;;;;9.76;91.03;99421.81;217418;1259;139934;-77
2024/03/16 06:40:05;;;;;;;5.70;3.30;;;;;;;9.90;91.16;99422.85;217334;1259;141437;-78
2024/03/16 06:45:09;;;;;;;7.50;4.00;;;;;;;10.11;91.26;99428.48;217251;1259;140790;-77
2024/03/16 06:50:14;;;;;;;3.90;3.40;;;;;;;10.36;91.35;99430.12;217326;1259;141132;-74
2024/03/16 06:55:19;;;;;;;6.50;4.00;;;;;;;10.64;91.27;99438.20;217076;1259;140508;-77
2024/03/16 07:00:24;;;;;;;7.80;4.50;;;;;;;10.90;90.80;99445.05;217202;1259;139677;-75
2024/03/16 07:05:27;;;;;;;5.10;4.10;;;;;;;11.23;90.73;99447.09;217576;1261;139889;-76
2024/03/16 07:10:31;;;;;;;7.30;5.20;;;;;;;11.56;90.43;99454.14;217503;1259;139530;-77
2024/03/16 07:15:34;;;;;;;5.50;5.00;;;;;;;11.87;90.32;99454.96;217341;1259;140253;-76
2024/03/16 07:20:38;;;;;;;9.50;6.00;;;;;;;12.30;89.94;99461.05;217444;1259;140961;-77
2024/03/16 07:25:47;;;;;;;6.90;4.70;;;;;;;12.59;89.38;99466.11;217755;1259;141086;-76
2024/03/16 07:30:55;;;;;;;9.20;6.10;;;;;;;12.75;88.71;99474.88;217323;1263;139852;-78
2024/03/16 07:36:01;;;;;;;7.80;4.80;;;;;;;12.96;88.52;99478.73;217291;1263;139882;-78
2024/03/16 07:41:05;;;;;;;5.40;4.90;;;;;;;13.12;87.75;99479.12;216960;1259;139799;-78
2024/03/16 07:46:09;;;;;;;13.70;6.20;;;;;;;13.32;87.61;99475.98;219423;1259;142235;-78
2024/03/16 07:51:14;;;;;;;6.70;5.40;;;;;;;13.46;87.09;99480.09;217099;1259;154303;-77
2024/03/16 07:56:18;;;;;;;6.70;5.70;;;;;;;13.55;86.65;99481.64;217334;1260;141230;-78
2024/03/16 08:01:23;;;;;;;5.70;5.10;;;;;;;13.66;86.41;99482.98;217301;1263;140606;-77
2024/03/16 08:06:27;;;;;;;7.50;6.70;;;;;;;13.76;85.73;99485.98;219185;1259;141178;-78
2024/03/16 08:11:33;;;;;;;9.40;6.80;;;;;;;13.93;85.58;99488.13;217270;1260;139213;-78
2024/03/16 08:16:36;;;;;;;4.50;3.80;;;;;;;14.08;85.51;99483.94;217197;1263;140642;-79
2024/03/16 08:21:43;;;;;;;9.00;6.30;;;;;;;14.28;85.36;99476.77;217387;1259;139936;-80
2024/03/16 08:26:48;;;;;;;8.00;6.60;;;;;;;14.43;85.07;99476.86;217477;1259;139729;-79
2024/03/16 08:31:52;;;;;;;9.60;6.80;;;;;;;14.79;85.37;99473.99;217162;1259;141039;-79
2024/03/16 08:36:58;;;;;;;13.10;8.10;;;;;;;15.11;84.29;99474.89;217051;1259;140093;-79
2024/03/16 08:42:02;;;;;;;8.10;6.10;;;;;;;15.37;83.69;99471.02;217724;1259;141125;-78
2024/03/16 08:47:06;;;;;;;13.10;7.00;;;;;;;15.53;82.67;99472.84;217509;1259;141231;-78
2024/03/16 08:52:14;;;;;;;4.30;3.80;;;;;;;15.43;82.02;99473.75;217031;1259;140227;-77
2024/03/16 08:57:19;;;;;;;8.70;4.90;;;;;;;15.42;80.56;99478.53;217175;1259;140832;-80
2024/03/16 09:02:26;;;;;;;7.50;4.60;;;;;;;15.50;80.55;99472.34;217498;1263;140327;-77
2024/03/16 09:07:30;;;;;;;6.20;5.00;;;;;;;15.51;79.69;99475.30;217220;1258;140064;-78
2024/03/16 09:12:35;;;;;;;6.50;5.90;;;;;;;15.47;79.31;99468.16;217768;1263;140787;-78
2024/03/16 09:17:40;;;;;;;6.00;5.40;;;;;;;15.74;79.44;99459.81;217333;1263;140002;-79
2024/03/16 09:22:44;;;;;;;5.00;4.40;;;;;;;16.13;79.59;99452.85;217222;1262;140752;-78
2024/03/16 09:27:49;;;;;;;6.00;4.60;;;;;;;16.64;79.54;99445.27;217159;1259;140846;-76
2024/03/16 09:32:53;;;;;;;6.20;4.50;;;;;;;16.95;78.66;99444.35;217312;1259;139817;-77
2024/03/16 09:37:57;;;;;;;7.10;3.90;;;;;;;17.26;77.92;99443.98;217385;1259;140201;-78
2024/03/16 09:43:01;;;;;;;5.10;4.10;;;;;;;17.49;77.06;99439.86;217108;1260;140193;-78
2024/03/16 09:48:12;;;;;;;5.10;4.10;;;;;;;17.72;76.56;99441.77;217833;1262;140201;-80
2024/03/16 09:53:32;;;;;;;5.60;4.60;;;;;;;17.83;75.23;99446.42;218325;1259;139848;-79
2024/03/16 09:58:40;;;;;;;3.70;2.70;;;;;;;17.96;74.51;99442.59;217689;1261;140042;-79
2024/03/16 10:03:45;;;;;;;7.60;3.50;;;;;;;18.19;73.78;99448.42;217329;1262;140158;-79
2024/03/16 10:09:12;;;;;;;6.20;3.60;;;;;;;18.13;72.35;99444.24;217316;1260;140300;-78
2024/03/16 10:14:16;;;;;;;5.10;3.90;;;;;;;18.05;71.60;99439.23;217398;1263;141254;-78
2024/03/16 10:19:20;;;;;;;5.90;3.70;;;;;;;18.14;70.85;99435.77;217459;1259;140321;-77
2024/03/16 10:24:22;;;;;;;3.40;3.10;;;;;;;18.21;70.86;99431.95;217401;1260;140878;-82
2024/03/16 10:29:25;;;;;;;6.20;4.60;;;;;;;18.40;70.47;99437.11;217309;1259;139663;-73
2024/03/16 10:34:30;;;;;;;5.40;3.80;;;;;;;18.10;69.31;99446.45;216981;1263;141929;-75
2024/03/16 10:39:35;;;;;;;5.30;2.60;;;;;;;17.75;68.87;99454.13;217361;1260;139678;-77
2024/03/16 10:44:44;;;;;;;4.20;2.80;;;;;;;17.66;68.74;99455.70;217276;1259;140386;-77
2024/03/16 10:49:49;;;;;;;2.00;1.60;;;;;;;17.75;68.68;99450.52;217487;1259;139236;-79
2024/03/16 10:54:51;;;;;;;2.70;2.40;;;;;;;17.98;68.47;99455.20;217594;1263;140209;-78
2024/03/16 10:59:54;;;;;;;2.60;2.20;;;;;;;18.07;68.00;99454.46;217086;1260;142758;-78
2024/03/16 11:04:58;;;;;;;3.30;3.00;;;;;;;18.00;67.43;99455.45;216788;1259;139934;-78
2024/03/16 11:10:02;;;;;;;3.50;2.70;;;;;;;18.04;67.20;99459.48;217816;1259;139761;-78
2024/03/16 11:15:32;;;;;;;6.60;2.50;;;;;;;18.16;67.06;99463.13;217797;1259;140694;-79
2024/03/16 11:20:40;;;;;;;3.80;3.10;;;;;;;18.13;66.97;99462.48;217071;1259;140336;-78
2024/03/16 11:25:43;;;;;;;9.20;4.90;;;;;;;18.06;66.55;99460.95;217924;1262;139961;-77
2024/03/16 11:30:47;;;;;;;5.60;3.90;;;;;;;17.94;66.23;99466.58;216912;1260;140162;-77
2024/03/16 11:35:50;;;;;;;3.00;2.80;;;;;;;17.75;65.97;99460.75;217616;1259;140335;-76
2024/03/16 11:41:00;;;;;;;6.00;3.50;;;;;;;17.63;66.35;99463.27;216781;1263;140055;-79
2024/03/16 11:46:03;;;;;;;4.80;2.20;;;;;;;17.71;66.66;99461.35;217199;1260;139554;-86
2024/03/16 11:51:09;;;;;;;4.50;3.30;;;;;;;17.89;66.60;99459.67;217017;1264;203422;-81
2024/03/16 11:56:16;;;;;;;7.30;3.60;;;;;;;18.06;66.41;99456.60;216566;1259;140103;-78
2024/03/16 12:01:23;;;;;;;4.70;2.90;;;;;;;18.02;65.72;99455.45;216917;1259;140488;-79
2024/03/16 12:06:36;;;;;;;3.60;3.00;;;;;;;17.85;65.29;99446.67;217720;1261;140636;-81
2024/03/16 12:11:47;;;;;;;4.60;2.30;;;;;;;17.69;65.09;99449.67;216973;1259;139888;-81
2024/03/16 12:16:56;;;;;;;7.20;4.50;;;;;;;17.56;65.30;99452.66;217458;1262;140151;-80
2024/03/16 12:22:00;;;;;;;5.80;3.60;;;;;;;17.45;65.25;99460.96;218182;1261;140491;-79
2024/03/16 12:27:09;;;;;;;7.80;5.10;;;;;;;17.34;65.15;99456.58;218126;1259;140806;-81
2024/03/16 12:32:13;;;;;;;4.10;2.40;;;;;;;17.27;65.45;99456.96;217188;1261;140298;-78
2024/03/16 12:37:23;;;;;;;7.30;4.50;;;;;;;17.18;65.57;99459.10;217489;1264;139537;-79
2024/03/16 12:42:26;;;;;;;4.30;3.00;;;;;;;17.02;65.56;99459.05;217566;1262;142285;-80
2024/03/16 12:47:30;;;;;;;4.60;3.90;;;;;;;17.00;65.71;99457.77;217522;1259;140698;-79
2024/03/16 12:52:36;;;;;;;4.80;2.90;;;;;;;17.04;65.96;99449.71;217672;1264;140804;-78
2024/03/16 12:57:41;;;;;;;6.50;5.20;;;;;;;17.19;66.19;99446.64;217335;1259;140818;-80
2024/03/16 13:02:44;;;;;;;3.90;2.50;;;;;;;17.27;65.61;99445.39;217056;1261;140953;-80
2024/03/16 13:07:48;;;;;;;4.10;3.80;;;;;;;17.29;65.25;99442.98;217080;1259;141952;-78
2024/03/16 13:12:51;;;;;;;2.50;2.30;;;;;;;17.29;64.84;99444.40;216987;1259;142092;-77
2024/03/16 13:17:55;;;;;;;8.70;5.30;;;;;;;17.33;64.59;99437.73;217039;1259;139867;-76
2024/03/16 13:22:58;;;;;;;1.80;1.30;;;;;;;17.41;64.00;99437.15;217231;1260;139837;-76
2024/03/16 13:28:01;;;;;;;1.60;1.40;;;;;;;17.48;63.66;99430.76;217843;1263;141052;-75
2024/03/16 13:33:04;;;;;;;2.50;2.00;;;;;;;17.55;63.36;99429.07;216968;1264;139555;-76
2024/03/16 13:38:11;;;;;;;4.50;2.10;;;;;;;17.54;63.16;99424.92;216948;1260;243739;-78
2024/03/16 13:43:16;;;;;;;2.30;2.10;;;;;;;17.23;62.27;99422.16;217434;1259;139774;-78
2024/03/16 13:48:20;;;;;;;2.60;1.90;;;;;;;16.90;62.33;99423.56;218218;1262;139682;-81
2024/03/16 13:53:23;;;;;;;2.50;1.80;;;;;;;16.82;62.61;99416.41;216893;1264;140092;-77
2024/03/16 13:58:26;;;;;;;2.30;1.70;;;;;;;16.62;62.53;99414.20;217121;1263;140344;-79
2024/03/16 14:03:31;;;;;;;6.60;2.30;;;;;;;16.68;62.19;99406.16;217116;1259;141101;-79
2024/03/16 14:08:42;;;;;;;1.20;1.20;;;;;;;16.89;62.17;99410.20;217320;1259;140064;-80
2024/03/16 14:13:54;;;;;;;1.20;1.10;;;;;;;17.04;61.92;99399.36;217359;1261;139773;-78
2024/03/16 14:18:57;;;;;;;4.70;1.80;;;;;;;17.17;61.91;99398.73;216961;1260;139716;-79
2024/03/16 14:24:02;;;;;;;1.80;1.70;;;;;;;17.26;61.45;99393.77;217780;1265;139234;-78
2024/03/16 14:29:09;;;;;;;3.30;1.60;;;;;;;17.19;61.12;99398.61;217330;1262;139663;-77
2024/03/16 14:34:19;;;;;;;1.80;1.10;;;;;;;17.04;60.74;99399.04;217427;1260;139331;-78
2024/03/16 14:39:27;;;;;;;;;;;;;;;16.87;60.66;99398.71;217466;1262;140800;-80
2024/03/16 14:44:34;;;;;;;8.70;2.40;;;;;;;16.71;60.75;99394.55;217724;1260;126031;-79
2024/03/16 14:49:38;;;;;;;9.80;3.80;;;;;;;16.79;61.03;99391.42;217128;1262;139980;-79
2024/03/16 14:54:42;;;;;;;8.60;2.40;;;;;;;16.86;60.92;99392.04;217321;1260;139767;-78
2024/03/16 14:59:54;;;;;;;2.60;1.90;;;;;;;16.95;60.19;99390.98;217218;1263;244201;-77
2024/03/16 15:04:56;;;;;;;5.60;3.70;;;;;;;16.94;59.62;99385.52;217232;1262;139706;-77
2024/03/16 15:10:12;;;;;;;10.80;4.70;;;;;;;16.84;59.49;99386.25;217339;1259;139861;-80
2024/03/16 15:15:14;;;;;;;5.30;1.90;;;;;;;16.72;59.18;99384.32;217466;1260;139274;-78
2024/03/16 15:20:24;;;;;;;5.10;1.30;;;;;;;16.59;59.31;99387.25;217541;1262;141222;-77
2024/03/16 15:25:38;;;;;;;3.40;1.50;;;;;;;16.47;59.13;99390.48;218269;1259;140382;-77
2024/03/16 15:30:45;;;;;;;4.80;1.60;;;;;;;16.25;59.28;99396.24;217827;1262;139738;-77
2024/03/16 15:35:48;;;;;;;3.00;1.30;;;;;;;16.12;59.68;99400.91;217758;1260;140430;-79
2024/03/16 15:40:55;;;;;;;3.30;2.90;;;;;;;15.99;59.73;99404.21;217059;1262;139854;-80
2024/03/16 15:45:59;;;;;;;4.90;2.10;;;;;;;15.84;59.76;99408.55;217363;1260;141848;-77
2024/03/16 15:51:02;;;;;;;4.10;2.10;;;;;;;15.66;59.56;99408.85;217428;1264;140211;-77
2024/03/16 15:56:05;;;;;;;2.40;1.60;;;;;;;15.45;59.64;99410.46;216951;1264;139237;-79
2024/03/16 16:01:08;;;;;;;10.00;4.00;;;;;;;15.30;59.85;99411.10;218610;1259;139369;-76
2024/03/16 16:06:11;;;;;;;4.00;2.30;;;;;;;15.19;59.91;99417.27;217170;1259;139142;-76
2024/03/16 16:11:18;;;;;;;3.80;2.10;;;;;;;15.01;60.15;99432.11;217288;1262;141505;-81
2024/03/16 16:16:21;;;;;;;10.70;4.70;;;;;;;14.73;60.84;99447.11;217063;1263;140244;-78
2024/03/16 16:21:24;;;;;;;7.20;2.40;;;;;;;14.50;61.58;99450.33;217582;1263;140661;-77
2024/03/16 16:26:28;;;;;;;3.60;2.70;;;;;;;14.28;62.28;99460.89;218293;1263;138893;-78
2024/03/16 16:31:33;;;;;;;3.80;2.20;;;;;;;14.00;62.86;99467.95;217333;1262;140254;-78
2024/03/16 16:36:35;;;;;;;2.10;1.90;;;;;;;13.81;63.39;99470.02;217255;1262;140071;-79
2024/03/16 16:41:39;;;;;;;4.30;3.10;;;;;;;13.67;64.25;99468.85;217295;1259;140800;-76
2024/03/16 16:46:42;;;;;;;3.40;3.10;;;;;;;13.57;64.28;99467.07;217287;1263;140159;-78
2024/03/16 16:51:45;;;;;;;9.50;4.30;;;;;;;13.51;64.73;99469.02;216946;1265;141004;-77
2024/03/16 16:56:48;;;;;;;3.30;2.40;;;;;;;13.45;65.17;99469.21;216870;1263;141233;-77
2024/03/16 17:01:55;;;;;;;2.20;1.90;;;;;;;13.37;65.58;99472.73;217490;1262;140341;-79
2024/03/16 17:06:58;;;;;;;3.50;2.30;;;;;;;13.31;65.87;99484.66;217547;1259;140754;-79
2024/03/16 17:12:03;;;;;;;9.50;4.20;;;;;;;13.20;65.99;99492.02;217732;1260;140435;-78
2024/03/16 17:17:07;;;;;;;6.50;5.90;;;;;;;13.06;66.19;99496.15;217011;1265;141468;-78
2024/03/16 17:22:10;;;;;;;4.30;1.60;;;;;;;12.94;66.43;99507.02;218884;1260;140852;-78
2024/03/16 17:27:14;;;;;;;5.70;2.10;;;;;;;12.82;66.33;99512.16;217553;1260;140694;-77
2024/03/16 17:32:17;;;;;;;3.10;2.00;;;;;;;12.64;66.56;99512.36;217064;1259;501424;-75
2024/03/16 17:37:19;;;;;;;7.20;3.30;;;;;;;12.49;67.06;99521.70;217268;1261;140534;-77
2024/03/16 17:42:25;;;;;;;2.70;1.90;;;;;;;12.36;67.43;99525.58;216906;1264;141538;-76
2024/03/16 17:47:28;;;;;;;2.40;2.20;;;;;;;12.21;67.88;99531.33;216684;1263;141348;-76
2024/03/16 17:52:31;;;;;;;4.20;1.80;;;;;;;12.08;68.35;99532.69;217288;1265;139819;-74
2024/03/16 17:57:35;;;;;;;6.40;3.10;;;;;;;11.97;69.01;99531.85;216877;1264;140202;-74
2024/03/16 18:02:38;;;;;;;6.00;2.30;;;;;;;11.95;69.70;99533.47;216966;1263;140503;-77
2024/03/16 18:07:41;;;;;;;7.10;3.70;;;;;;;11.97;69.92;99536.55;217136;1260;140252;-77
2024/03/16 18:12:47;;;;;;;4.90;3.60;;;;;;;11.98;70.09;99542.70;217004;1261;140116;-73
2024/03/16 18:17:50;;;;;;;6.40;4.40;;;;;;;11.97;70.48;99542.21;217020;1264;140355;-76
2024/03/16 18:22:54;;;;;;;8.00;4.00;;;;;;;11.93;70.84;99538.92;216790;1262;141261;-74
2024/03/16 18:27:57;;;;;;;6.10;3.60;;;;;;;11.92;71.22;99540.61;217046;1264;140708;-76
2024/03/16 18:33:00;;;;;;;9.20;4.50;;;;;;;11.91;71.23;99541.30;217123;1263;141206;-73
2024/03/16 18:38:03;;;;;;;6.50;4.10;;;;;;;11.90;71.46;99548.88;216815;1260;140697;-73
2024/03/16 18:43:07;;;;;;;7.20;4.40;;;;;;;11.90;71.84;99550.80;217031;1264;139903;-72
2024/03/16 18:48:11;;;;;;;5.40;3.60;;;;;;;11.91;71.66;99557.96;216894;1265;140258;-72
2024/03/16 18:53:14;;;;;;;7.70;4.50;;;;;;;11.90;71.86;99562.17;216933;1261;140934;-75
2024/03/16 18:58:17;;;;;;;12.20;5.80;;;;;;;11.90;72.13;99565.01;217471;1261;140859;-73
2024/03/16 19:03:19;;;;;;;5.40;4.30;;;;;;;11.87;72.20;99572.39;219115;1260;141260;-74
2024/03/16 19:08:23;;;;;;;9.20;4.30;;;;;;;11.84;71.95;99575.71;216862;1263;139950;-75
2024/03/16 19:13:26;;;;;;;4.60;4.00;;;;;;;11.83;72.48;99580.71;217610;1261;140674;-75
2024/03/16 19:18:29;;;;;;;9.40;5.30;;;;;;;11.83;72.67;99582.16;216815;1260;140174;-75
2024/03/16 19:23:33;;;;;;;7.00;4.50;;;;;;;11.83;72.57;99581.85;217168;1264;139760;-77
2024/03/16 19:28:37;;;;;;;9.40;6.00;;;;;;;11.79;72.77;99586.39;217546;1259;141328;-78
2024/03/16 19:33:40;;;;;;;15.20;8.60;;;;;;;11.76;72.96;99595.23;217404;1263;140329;-75
2024/03/16 19:38:44;;;;;;;12.90;6.40;;;;;;;11.74;72.94;99596.00;217154;1264;141492;-74
2024/03/16 19:43:47;;;;;;;12.70;6.00;;;;;;;11.66;73.48;99617.23;217526;1259;141772;-75
2024/03/16 19:48:49;;;;;;;7.50;5.30;;;;;;;11.33;74.13;99627.82;217126;1263;140543;-79
2024/03/16 19:53:52;;;;;;;6.10;4.70;;;;;;;11.09;75.25;99638.48;217048;1260;140891;-75
2024/03/16 19:58:56;;;;;;;10.60;6.40;;;;;;;10.93;75.79;99652.88;217270;1264;140652;-77
2024/03/16 20:03:59;;;;;;;5.00;2.90;;;;;;;10.80;76.13;99659.59;216843;1260;141666;-78
2024/03/16 20:09:02;;;;;;;7.40;4.30;;;;;;;10.71;76.88;99661.59;217056;1263;141295;-78
2024/03/16 20:14:05;;;;;;;5.60;5.00;;;;;;;10.68;77.55;99670.68;217781;1260;141098;-77
2024/03/16 20:19:09;;;;;;;2.60;2.40;;;;;;;10.59;77.79;99680.67;216964;1261;139899;-77
2024/03/16 20:24:12;;;;;;;5.40;4.10;;;;;;;10.47;78.20;99684.91;217679;1260;142937;-75
2024/03/16 20:29:14;;;;;;;2.90;2.60;;;;;;;10.38;78.59;99687.70;217302;1260;140444;-75
2024/03/16 20:34:17;;;;;;;6.00;3.30;;;;;;;10.31;78.89;99697.09;216797;1263;140818;-78
2024/03/16 20:39:22;;;;;;;3.40;2.10;;;;;;;10.22;79.23;99704.77;216830;1264;141588;-77
2024/03/16 20:44:24;;;;;;;3.40;2.60;;;;;;;10.15;79.52;99710.28;217157;1260;141284;-77
2024/03/16 20:49:31;;;;;;;3.30;3.10;;;;;;;10.08;79.57;99719.30;217518;1260;140739;-79
2024/03/16 20:54:35;;;;;;;3.20;3.00;;;;;;;9.99;79.42;99727.09;217785;1260;140459;-79
2024/03/16 20:59:41;;;;;;;2.20;1.70;;;;;;;9.88;79.62;99731.98;219240;1260;141446;-79
2024/03/16 21:04:44;;;;;;;4.20;2.80;;;;;;;9.82;79.77;99735.93;219394;1260;140564;-76
2024/03/16 21:09:46;;;;;;;8.40;4.10;;;;;;;9.73;79.94;99741.65;216927;1259;140455;-76
2024/03/16 21:14:49;;;;;;;2.10;1.70;;;;;;;9.63;79.89;99764.43;218489;1260;142171;-79
2024/03/16 21:19:51;;;;;;;1.10;1.10;;;;;;;9.42;79.79;99780.01;216970;1260;140708;-75
2024/03/16 21:24:54;;;;;;;2.00;1.80;;;;;;;9.22;80.13;99792.71;216901;1261;140884;-76
2024/03/16 21:29:57;;;;;;;1.80;1.70;;;;;;;9.05;80.35;99811.63;216986;1260;141513;-78
2024/03/16 21:35:00;;;;;;;3.70;2.50;;;;;;;8.82;79.88;99837.48;216765;1261;140774;-78
2024/03/16 21:40:04;;;;;;;3.00;2.70;;;;;;;8.48;79.41;99844.41;217223;1260;140876;-79
2024/03/16 21:45:08;;;;;;;8.60;5.10;;;;;;;8.23;79.74;99860.73;216968;1259;140597;-77
2024/03/16 21:50:13;;;;;;;7.20;3.70;;;;;;;8.05;79.83;99870.86;217267;1260;234488;-74
2024/03/16 21:55:18;;;;;;;4.00;3.20;;;;;;;7.83;80.11;99876.29;216784;1260;139815;-78
2024/03/16 22:00:21;;;;;;;3.20;2.90;;;;;;;7.72;80.62;99894.05;217656;1262;141269;-76
2024/03/16 22:05:25;;;;;;;4.90;3.80;;;;;;;7.64;80.36;99902.22;216907;1264;139373;-75
2024/03/16 22:10:30;;;;;;;9.10;4.60;;;;;;;7.55;81.04;99907.16;216817;1264;139684;-73
2024/03/16 22:15:33;;;;;;;5.30;4.30;;;;;;;7.39;80.46;99910.11;216838;1260;139744;-74
2024/03/16 22:20:37;;;;;;;9.30;4.90;;;;;;;7.24;80.95;99912.55;216883;1260;139642;-74
2024/03/16 22:25:39;;;;;;;6.50;3.10;;;;;;;7.17;81.10;99911.16;216847;1260;140674;-76
2024/03/16 22:30:42;;;;;;;5.60;3.70;;;;;;;7.13;81.24;99918.14;217336;1259;141399;-75
2024/03/16 22:35:46;;;;;;;7.40;4.60;;;;;;;7.09;81.08;99928.72;216834;1264;140268;-76
2024/03/16 22:40:49;;;;;;;14.60;10.80;;;;;;;7.07;81.36;99937.81;216856;1260;139596;-77
2024/03/16 22:45:52;;;;;;;14.60;13.20;;;;;;;7.07;81.53;99948.05;216868;1260;140296;-79
2024/03/16 22:50:55;;;;;;;7.50;5.20;;;;;;;7.09;81.84;99951.43;217635;1260;142960;-78
2024/03/16 22:56:04;;;;;;;6.40;4.00;;;;;;;7.13;81.90;99963.21;217364;1260;140557;-78
2024/03/16 23:01:08;;;;;;;8.10;3.70;;;;;;;7.11;82.07;99968.89;218577;1259;140465;-78
2024/03/16 23:06:13;;;;;;;11.00;4.40;;;;;;;7.12;82.09;99968.81;217058;1259;139652;-77
2024/03/16 23:11:18;;;;;;;18.90;8.50;;;;;;;7.08;81.64;99970.31;217078;1260;140309;-79
2024/03/16 23:16:21;;;;;;;10.30;8.80;;;;;;;7.03;82.23;99974.20;217085;1264;141201;-78
2024/03/16 23:21:24;;;;;;;4.40;3.30;;;;;;;6.99;81.85;99971.56;217520;1260;139723;-79